Terminal Aerodrome Forecast
Issued by NWS Wilmington, NC

Home | Current Version | Previous Version | Text Only | Print | Product List | Glossary On
Versions: 1 2 3 4 5 6 7 8 9 10 11 12 13 14
000
FTUS42 KILM 170530 CCA
TAFLBT
TAF COR
KLBT 170530Z 1706/1806 23004KT P6SM FEW200
      TEMPO 1710/1712 4SM BR
     FM180000 18004KT P6SM BKN060=

USA.gov is the U.S. government's official web portal to all federal, state and local government web resources and services.